sensor_id;sensor_type;location;lat;lon;timestamp;P1;durP1;ratioP1;P2;durP2;ratioP2
4971;SDS011;2501;51.214;6.768;2022-12-29T00:01:43;2.20;;;1.50;;
4971;SDS011;2501;51.214;6.768;2022-12-29T00:04:12;1.58;;;1.15;;
4971;SDS011;2501;51.214;6.768;2022-12-29T00:06:42;0.70;;;0.70;;
4971;SDS011;2501;51.214;6.768;2022-12-29T00:09:13;1.00;;;1.00;;
4971;SDS011;2501;51.214;6.768;2022-12-29T00:11:44;1.00;;;1.00;;
4971;SDS011;2501;51.214;6.768;2022-12-29T00:14:12;1.30;;;1.00;;
4971;SDS011;2501;51.214;6.768;2022-12-29T00:16:53;0.90;;;0.80;;
4971;SDS011;2501;51.214;6.768;2022-12-29T00:19:22;1.80;;;0.90;;
4971;SDS011;2501;51.214;6.768;2022-12-29T00:22:03;0.90;;;0.90;;
4971;SDS011;2501;51.214;6.768;2022-12-29T00:24:47;0.90;;;0.90;;
4971;SDS011;2501;51.214;6.768;2022-12-29T00:27:28;1.27;;;1.17;;
4971;SDS011;2501;51.214;6.768;2022-12-29T00:30:10;1.23;;;1.13;;
4971;SDS011;2501;51.214;6.768;2022-12-29T00:32:53;1.30;;;1.20;;
4971;SDS011;2501;51.214;6.768;2022-12-29T00:35:36;1.23;;;0.95;;
4971;SDS011;2501;51.214;6.768;2022-12-29T00:38:10;1.20;;;1.10;;
4971;SDS011;2501;51.214;6.768;2022-12-29T00:40:55;1.10;;;1.00;;
4971;SDS011;2501;51.214;6.768;2022-12-29T00:43:36;1.10;;;1.00;;
4971;SDS011;2501;51.214;6.768;2022-12-29T00:46:17;1.10;;;0.90;;
4971;SDS011;2501;51.214;6.768;2022-12-29T00:48:46;1.90;;;0.90;;
4971;SDS011;2501;51.214;6.768;2022-12-29T00:51:26;0.80;;;0.80;;
4971;SDS011;2501;51.214;6.768;2022-12-29T00:53:55;0.60;;;0.60;;
4971;SDS011;2501;51.214;6.768;2022-12-29T00:56:26;1.50;;;1.10;;
4971;SDS011;2501;51.214;6.768;2022-12-29T00:58:54;0.80;;;0.80;;
4971;SDS011;2501;51.214;6.768;2022-12-29T01:01:23;1.48;;;0.70;;
4971;SDS011;2501;51.214;6.768;2022-12-29T01:03:51;0.70;;;0.63;;
4971;SDS011;2501;51.214;6.768;2022-12-29T01:06:20;0.80;;;0.80;;
4971;SDS011;2501;51.214;6.768;2022-12-29T01:08:48;0.70;;;0.60;;
4971;SDS011;2501;51.214;6.768;2022-12-29T01:11:41;0.90;;;0.90;;
4971;SDS011;2501;51.214;6.768;2022-12-29T01:14:07;5.00;;;0.80;;
4971;SDS011;2501;51.214;6.768;2022-12-29T01:16:35;0.60;;;0.60;;
4971;SDS011;2501;51.214;6.768;2022-12-29T01:19:04;1.20;;;0.80;;
4971;SDS011;2501;51.214;6.768;2022-12-29T01:21:32;0.80;;;0.80;;
4971;SDS011;2501;51.214;6.768;2022-12-29T01:24:01;1.20;;;0.90;;
4971;SDS011;2501;51.214;6.768;2022-12-29T01:26:30;0.70;;;0.70;;
4971;SDS011;2501;51.214;6.768;2022-12-29T01:29:01;0.60;;;0.50;;
4971;SDS011;2501;51.214;6.768;2022-12-29T01:31:29;1.30;;;0.60;;
4971;SDS011;2501;51.214;6.768;2022-12-29T01:33:58;0.60;;;0.50;;
4971;SDS011;2501;51.214;6.768;2022-12-29T01:36:26;0.98;;;0.70;;
4971;SDS011;2501;51.214;6.768;2022-12-29T01:38:55;2.00;;;0.70;;
4971;SDS011;2501;51.214;6.768;2022-12-29T01:41:23;1.20;;;0.50;;
4971;SDS011;2501;51.214;6.768;2022-12-29T01:43:53;2.30;;;0.80;;
4971;SDS011;2501;51.214;6.768;2022-12-29T01:46:28;1.50;;;0.70;;
4971;SDS011;2501;51.214;6.768;2022-12-29T01:49:02;2.47;;;0.70;;
4971;SDS011;2501;51.214;6.768;2022-12-29T01:51:40;0.70;;;0.70;;
4971;SDS011;2501;51.214;6.768;2022-12-29T01:54:12;0.80;;;0.70;;
4971;SDS011;2501;51.214;6.768;2022-12-29T01:56:45;0.70;;;0.60;;
4971;SDS011;2501;51.214;6.768;2022-12-29T01:59:15;0.90;;;0.80;;
4971;SDS011;2501;51.214;6.768;2022-12-29T02:01:50;1.10;;;0.90;;
4971;SDS011;2501;51.214;6.768;2022-12-29T02:04:18;2.50;;;0.80;;
4971;SDS011;2501;51.214;6.768;2022-12-29T02:06:48;1.10;;;0.60;;
4971;SDS011;2501;51.214;6.768;2022-12-29T02:09:21;2.00;;;0.60;;
4971;SDS011;2501;51.214;6.768;2022-12-29T02:11:50;1.10;;;0.80;;
4971;SDS011;2501;51.214;6.768;2022-12-29T02:14:19;1.90;;;0.90;;
4971;SDS011;2501;51.214;6.768;2022-12-29T02:16:55;4.60;;;0.70;;
4971;SDS011;2501;51.214;6.768;2022-12-29T02:22:52;1.23;;;1.02;;
4971;SDS011;2501;51.214;6.768;2022-12-29T02:28:35;1.42;;;0.98;;
4971;SDS011;2501;51.214;6.768;2022-12-29T02:31:21;1.30;;;0.80;;
4971;SDS011;2501;51.214;6.768;2022-12-29T02:34:00;1.20;;;0.90;;
4971;SDS011;2501;51.214;6.768;2022-12-29T02:36:40;1.13;;;0.90;;
4971;SDS011;2501;51.214;6.768;2022-12-29T02:39:15;3.60;;;0.90;;
4971;SDS011;2501;51.214;6.768;2022-12-29T02:41:54;4.35;;;1.20;;
4971;SDS011;2501;51.214;6.768;2022-12-29T02:44:31;2.20;;;1.00;;
4971;SDS011;2501;51.214;6.768;2022-12-29T02:47:14;1.20;;;0.90;;
4971;SDS011;2501;51.214;6.768;2022-12-29T02:49:51;1.60;;;1.10;;
4971;SDS011;2501;51.214;6.768;2022-12-29T02:52:26;1.20;;;0.95;;
4971;SDS011;2501;51.214;6.768;2022-12-29T02:54:59;0.80;;;0.80;;
4971;SDS011;2501;51.214;6.768;2022-12-29T02:57:29;1.00;;;0.83;;
4971;SDS011;2501;51.214;6.768;2022-12-29T03:00:00;0.80;;;0.80;;
4971;SDS011;2501;51.214;6.768;2022-12-29T03:05:33;1.50;;;0.80;;
4971;SDS011;2501;51.214;6.768;2022-12-29T03:08:14;1.40;;;0.90;;
4971;SDS011;2501;51.214;6.768;2022-12-29T03:10:53;1.10;;;1.00;;
4971;SDS011;2501;51.214;6.768;2022-12-29T03:13:28;1.93;;;0.90;;
4971;SDS011;2501;51.214;6.768;2022-12-29T03:16:18;1.10;;;0.82;;
4971;SDS011;2501;51.214;6.768;2022-12-29T03:18:59;2.53;;;0.80;;
4971;SDS011;2501;51.214;6.768;2022-12-29T03:21:32;0.93;;;0.70;;
4971;SDS011;2501;51.214;6.768;2022-12-29T03:24:16;4.40;;;0.82;;
4971;SDS011;2501;51.214;6.768;2022-12-29T03:26:48;1.60;;;1.20;;
4971;SDS011;2501;51.214;6.768;2022-12-29T03:29:20;2.10;;;0.90;;
4971;SDS011;2501;51.214;6.768;2022-12-29T03:31:49;1.38;;;0.75;;
4971;SDS011;2501;51.214;6.768;2022-12-29T03:34:23;1.20;;;0.90;;
4971;SDS011;2501;51.214;6.768;2022-12-29T03:36:53;1.25;;;0.80;;
4971;SDS011;2501;51.214;6.768;2022-12-29T03:39:30;4.70;;;1.00;;
4971;SDS011;2501;51.214;6.768;2022-12-29T03:41:59;1.00;;;0.70;;
4971;SDS011;2501;51.214;6.768;2022-12-29T03:44:33;2.30;;;0.90;;
4971;SDS011;2501;51.214;6.768;2022-12-29T03:47:05;2.17;;;0.80;;
4971;SDS011;2501;51.214;6.768;2022-12-29T03:49:36;1.20;;;1.10;;
4971;SDS011;2501;51.214;6.768;2022-12-29T03:52:05;1.40;;;0.90;;
4971;SDS011;2501;51.214;6.768;2022-12-29T03:54:34;2.60;;;1.17;;
4971;SDS011;2501;51.214;6.768;2022-12-29T03:57:03;2.00;;;1.30;;
4971;SDS011;2501;51.214;6.768;2022-12-29T03:59:31;1.25;;;0.90;;
4971;SDS011;2501;51.214;6.768;2022-12-29T04:02:00;2.13;;;0.68;;
4971;SDS011;2501;51.214;6.768;2022-12-29T04:04:28;1.38;;;0.90;;
4971;SDS011;2501;51.214;6.768;2022-12-29T04:06:59;1.30;;;1.20;;
4971;SDS011;2501;51.214;6.768;2022-12-29T04:09:27;0.80;;;0.80;;
4971;SDS011;2501;51.214;6.768;2022-12-29T04:11:56;1.60;;;0.90;;
4971;SDS011;2501;51.214;6.768;2022-12-29T04:14:25;1.10;;;0.80;;
4971;SDS011;2501;51.214;6.768;2022-12-29T04:16:53;1.40;;;0.90;;
4971;SDS011;2501;51.214;6.768;2022-12-29T04:19:21;1.30;;;0.70;;
4971;SDS011;2501;51.214;6.768;2022-12-29T04:21:50;1.40;;;0.70;;
4971;SDS011;2501;51.214;6.768;2022-12-29T04:24:21;1.00;;;0.90;;
4971;SDS011;2501;51.214;6.768;2022-12-29T04:26:49;1.70;;;0.70;;
4971;SDS011;2501;51.214;6.768;2022-12-29T04:29:18;0.77;;;0.77;;
4971;SDS011;2501;51.214;6.768;2022-12-29T04:31:46;1.80;;;0.90;;
4971;SDS011;2501;51.214;6.768;2022-12-29T04:34:15;1.40;;;0.95;;
4971;SDS011;2501;51.214;6.768;2022-12-29T04:36:43;0.70;;;0.60;;
4971;SDS011;2501;51.214;6.768;2022-12-29T04:39:11;0.90;;;0.70;;
4971;SDS011;2501;51.214;6.768;2022-12-29T04:41:43;1.23;;;1.00;;
4971;SDS011;2501;51.214;6.768;2022-12-29T04:44:11;0.80;;;0.70;;
4971;SDS011;2501;51.214;6.768;2022-12-29T04:46:39;1.25;;;0.80;;
4971;SDS011;2501;51.214;6.768;2022-12-29T04:49:08;0.90;;;0.80;;
4971;SDS011;2501;51.214;6.768;2022-12-29T04:51:36;6.10;;;1.00;;
4971;SDS011;2501;51.214;6.768;2022-12-29T04:54:05;0.90;;;0.90;;
4971;SDS011;2501;51.214;6.768;2022-12-29T04:56:33;1.20;;;0.98;;
4971;SDS011;2501;51.214;6.768;2022-12-29T04:59:07;2.50;;;0.98;;
4971;SDS011;2501;51.214;6.768;2022-12-29T05:01:35;0.70;;;0.70;;
4971;SDS011;2501;51.214;6.768;2022-12-29T05:04:04;1.27;;;0.70;;
4971;SDS011;2501;51.214;6.768;2022-12-29T05:06:32;1.70;;;0.70;;
4971;SDS011;2501;51.214;6.768;2022-12-29T05:09:00;1.20;;;0.75;;
4971;SDS011;2501;51.214;6.768;2022-12-29T05:11:29;0.80;;;0.80;;
4971;SDS011;2501;51.214;6.768;2022-12-29T05:13:57;0.80;;;0.70;;
4971;SDS011;2501;51.214;6.768;2022-12-29T05:16:28;2.20;;;0.70;;
4971;SDS011;2501;51.214;6.768;2022-12-29T05:18:57;2.33;;;0.90;;
4971;SDS011;2501;51.214;6.768;2022-12-29T05:21:25;4.50;;;0.82;;
4971;SDS011;2501;51.214;6.768;2022-12-29T05:23:54;5.50;;;1.27;;
4971;SDS011;2501;51.214;6.768;2022-12-29T05:26:22;5.80;;;1.20;;
4971;SDS011;2501;51.214;6.768;2022-12-29T05:28:51;1.20;;;0.80;;
4971;SDS011;2501;51.214;6.768;2022-12-29T05:31:19;4.07;;;1.00;;
4971;SDS011;2501;51.214;6.768;2022-12-29T05:33:50;1.88;;;0.90;;
4971;SDS011;2501;51.214;6.768;2022-12-29T05:36:19;3.10;;;0.95;;
4971;SDS011;2501;51.214;6.768;2022-12-29T05:38:48;2.20;;;1.38;;
4971;SDS011;2501;51.214;6.768;2022-12-29T05:41:16;3.05;;;0.90;;
4971;SDS011;2501;51.214;6.768;2022-12-29T05:43:45;2.67;;;1.10;;
4971;SDS011;2501;51.214;6.768;2022-12-29T05:46:13;1.20;;;0.75;;
4971;SDS011;2501;51.214;6.768;2022-12-29T05:48:42;2.00;;;0.80;;
4971;SDS011;2501;51.214;6.768;2022-12-29T05:51:13;5.10;;;1.23;;
4971;SDS011;2501;51.214;6.768;2022-12-29T05:53:41;2.22;;;1.00;;
4971;SDS011;2501;51.214;6.768;2022-12-29T05:56:09;1.27;;;1.17;;
4971;SDS011;2501;51.214;6.768;2022-12-29T05:58:38;1.77;;;1.17;;
4971;SDS011;2501;51.214;6.768;2022-12-29T06:01:07;1.90;;;0.88;;
4971;SDS011;2501;51.214;6.768;2022-12-29T06:03:35;4.72;;;1.38;;
4971;SDS011;2501;51.214;6.768;2022-12-29T06:06:04;1.23;;;0.90;;
4971;SDS011;2501;51.214;6.768;2022-12-29T06:08:35;1.95;;;0.90;;
4971;SDS011;2501;51.214;6.768;2022-12-29T06:11:04;3.42;;;1.10;;
4971;SDS011;2501;51.214;6.768;2022-12-29T06:13:32;1.70;;;1.00;;
4971;SDS011;2501;51.214;6.768;2022-12-29T06:16:01;3.47;;;1.10;;
4971;SDS011;2501;51.214;6.768;2022-12-29T06:18:29;2.60;;;0.90;;
4971;SDS011;2501;51.214;6.768;2022-12-29T06:20:59;6.20;;;1.25;;
4971;SDS011;2501;51.214;6.768;2022-12-29T06:23:28;1.52;;;0.95;;
4971;SDS011;2501;51.214;6.768;2022-12-29T06:25:59;3.22;;;1.10;;
4971;SDS011;2501;51.214;6.768;2022-12-29T06:28:27;9.80;;;1.70;;
4971;SDS011;2501;51.214;6.768;2022-12-29T06:30:55;1.67;;;0.90;;
4971;SDS011;2501;51.214;6.768;2022-12-29T06:33:24;3.90;;;1.13;;
4971;SDS011;2501;51.214;6.768;2022-12-29T06:35:52;2.33;;;0.90;;
4971;SDS011;2501;51.214;6.768;2022-12-29T06:38:20;1.50;;;1.20;;
4971;SDS011;2501;51.214;6.768;2022-12-29T06:40:49;1.60;;;1.20;;
4971;SDS011;2501;51.214;6.768;2022-12-29T06:43:20;4.80;;;1.60;;
4971;SDS011;2501;51.214;6.768;2022-12-29T06:45:48;1.90;;;1.23;;
4971;SDS011;2501;51.214;6.768;2022-12-29T06:48:17;1.60;;;0.70;;
4971;SDS011;2501;51.214;6.768;2022-12-29T06:50:45;3.03;;;1.00;;
4971;SDS011;2501;51.214;6.768;2022-12-29T06:53:14;3.20;;;1.05;;
4971;SDS011;2501;51.214;6.768;2022-12-29T06:55:42;2.47;;;1.17;;
4971;SDS011;2501;51.214;6.768;2022-12-29T06:58:11;3.80;;;0.90;;
4971;SDS011;2501;51.214;6.768;2022-12-29T07:00:42;5.47;;;1.00;;
4971;SDS011;2501;51.214;6.768;2022-12-29T07:03:10;4.40;;;1.40;;
4971;SDS011;2501;51.214;6.768;2022-12-29T07:05:38;5.20;;;1.58;;
4971;SDS011;2501;51.214;6.768;2022-12-29T07:08:07;3.57;;;1.30;;
4971;SDS011;2501;51.214;6.768;2022-12-29T07:10:35;3.15;;;1.25;;
4971;SDS011;2501;51.214;6.768;2022-12-29T07:13:04;2.72;;;1.02;;
4971;SDS011;2501;51.214;6.768;2022-12-29T07:15:32;2.08;;;1.65;;
4971;SDS011;2501;51.214;6.768;2022-12-29T07:18:03;4.85;;;1.70;;
4971;SDS011;2501;51.214;6.768;2022-12-29T07:20:32;2.60;;;1.80;;
4971;SDS011;2501;51.214;6.768;2022-12-29T07:23:01;3.40;;;1.20;;
4971;SDS011;2501;51.214;6.768;2022-12-29T07:25:30;3.72;;;1.10;;
4971;SDS011;2501;51.214;6.768;2022-12-29T07:28:00;3.00;;;1.40;;
4971;SDS011;2501;51.214;6.768;2022-12-29T07:30:28;4.32;;;1.40;;
4971;SDS011;2501;51.214;6.768;2022-12-29T07:32:57;5.10;;;1.30;;
4971;SDS011;2501;51.214;6.768;2022-12-29T07:35:28;4.00;;;1.30;;
4971;SDS011;2501;51.214;6.768;2022-12-29T07:37:56;1.80;;;1.20;;
4971;SDS011;2501;51.214;6.768;2022-12-29T07:40:24;2.70;;;1.25;;
4971;SDS011;2501;51.214;6.768;2022-12-29T07:42:53;3.47;;;1.20;;
4971;SDS011;2501;51.214;6.768;2022-12-29T07:45:21;4.45;;;1.33;;
4971;SDS011;2501;51.214;6.768;2022-12-29T07:47:50;4.18;;;1.20;;
4971;SDS011;2501;51.214;6.768;2022-12-29T07:50:21;3.13;;;1.20;;
4971;SDS011;2501;51.214;6.768;2022-12-29T07:52:52;3.25;;;1.30;;
4971;SDS011;2501;51.214;6.768;2022-12-29T07:55:21;4.07;;;1.27;;
4971;SDS011;2501;51.214;6.768;2022-12-29T07:57:49;4.35;;;1.90;;
4971;SDS011;2501;51.214;6.768;2022-12-29T08:00:17;5.30;;;1.27;;
4971;SDS011;2501;51.214;6.768;2022-12-29T08:02:46;7.30;;;1.70;;
4971;SDS011;2501;51.214;6.768;2022-12-29T08:05:15;9.60;;;1.70;;
4971;SDS011;2501;51.214;6.768;2022-12-29T08:07:43;5.25;;;1.77;;
4971;SDS011;2501;51.214;6.768;2022-12-29T08:10:15;7.40;;;1.73;;
4971;SDS011;2501;51.214;6.768;2022-12-29T08:12:44;5.57;;;1.60;;
4971;SDS011;2501;51.214;6.768;2022-12-29T08:15:13;6.50;;;2.10;;
4971;SDS011;2501;51.214;6.768;2022-12-29T08:17:41;5.00;;;1.52;;
4971;SDS011;2501;51.214;6.768;2022-12-29T08:20:09;7.70;;;1.90;;
4971;SDS011;2501;51.214;6.768;2022-12-29T08:22:38;4.65;;;1.80;;
4971;SDS011;2501;51.214;6.768;2022-12-29T08:25:08;6.05;;;1.35;;
4971;SDS011;2501;51.214;6.768;2022-12-29T08:27:39;4.60;;;1.90;;
4971;SDS011;2501;51.214;6.768;2022-12-29T08:30:08;8.30;;;1.90;;
4971;SDS011;2501;51.214;6.768;2022-12-29T08:32:37;8.55;;;2.33;;
4971;SDS011;2501;51.214;6.768;2022-12-29T08:35:06;5.40;;;1.30;;
4971;SDS011;2501;51.214;6.768;2022-12-29T08:37:35;4.83;;;1.10;;
4971;SDS011;2501;51.214;6.768;2022-12-29T08:40:04;1.13;;;1.02;;
4971;SDS011;2501;51.214;6.768;2022-12-29T08:42:33;4.83;;;1.10;;
4971;SDS011;2501;51.214;6.768;2022-12-29T08:45:05;4.45;;;1.30;;
4971;SDS011;2501;51.214;6.768;2022-12-29T08:47:35;4.63;;;1.80;;
4971;SDS011;2501;51.214;6.768;2022-12-29T08:50:03;2.20;;;1.20;;
4971;SDS011;2501;51.214;6.768;2022-12-29T08:52:32;3.40;;;1.23;;
4971;SDS011;2501;51.214;6.768;2022-12-29T08:55:01;6.47;;;1.58;;
4971;SDS011;2501;51.214;6.768;2022-12-29T08:57:29;4.80;;;1.20;;
4971;SDS011;2501;51.214;6.768;2022-12-29T08:59:58;3.40;;;1.30;;
4971;SDS011;2501;51.214;6.768;2022-12-29T09:02:29;7.80;;;1.50;;
4971;SDS011;2501;51.214;6.768;2022-12-29T09:04:57;2.47;;;1.20;;
4971;SDS011;2501;51.214;6.768;2022-12-29T09:07:26;5.35;;;1.90;;
4971;SDS011;2501;51.214;6.768;2022-12-29T09:09:54;6.30;;;2.20;;
4971;SDS011;2501;51.214;6.768;2022-12-29T09:12:22;5.40;;;1.92;;
4971;SDS011;2501;51.214;6.768;2022-12-29T09:14:51;8.83;;;3.40;;
4971;SDS011;2501;51.214;6.768;2022-12-29T09:17:19;10.83;;;2.03;;
4971;SDS011;2501;51.214;6.768;2022-12-29T09:20:03;8.80;;;1.48;;
4971;SDS011;2501;51.214;6.768;2022-12-29T09:22:34;4.95;;;1.52;;
4971;SDS011;2501;51.214;6.768;2022-12-29T09:25:05;6.65;;;1.30;;
4971;SDS011;2501;51.214;6.768;2022-12-29T09:27:34;3.15;;;1.30;;
4971;SDS011;2501;51.214;6.768;2022-12-29T09:30:04;4.95;;;1.55;;
4971;SDS011;2501;51.214;6.768;2022-12-29T09:32:35;7.40;;;1.80;;
4971;SDS011;2501;51.214;6.768;2022-12-29T09:35:06;6.57;;;2.42;;
4971;SDS011;2501;51.214;6.768;2022-12-29T09:37:36;5.45;;;1.73;;
4971;SDS011;2501;51.214;6.768;2022-12-29T09:40:05;8.23;;;1.80;;
4971;SDS011;2501;51.214;6.768;2022-12-29T09:42:37;4.80;;;1.50;;
4971;SDS011;2501;51.214;6.768;2022-12-29T09:45:10;6.95;;;1.85;;
4971;SDS011;2501;51.214;6.768;2022-12-29T09:47:43;5.47;;;1.80;;
4971;SDS011;2501;51.214;6.768;2022-12-29T09:50:18;4.25;;;1.65;;
4971;SDS011;2501;51.214;6.768;2022-12-29T09:52:53;7.80;;;1.95;;
4971;SDS011;2501;51.214;6.768;2022-12-29T09:55:33;4.63;;;1.83;;
4971;SDS011;2501;51.214;6.768;2022-12-29T09:58:10;5.57;;;1.70;;
4971;SDS011;2501;51.214;6.768;2022-12-29T10:00:46;5.85;;;1.70;;
4971;SDS011;2501;51.214;6.768;2022-12-29T10:03:20;9.65;;;3.80;;
4971;SDS011;2501;51.214;6.768;2022-12-29T10:05:53;13.35;;;1.90;;
4971;SDS011;2501;51.214;6.768;2022-12-29T10:08:30;7.40;;;2.13;;
4971;SDS011;2501;51.214;6.768;2022-12-29T10:11:07;10.40;;;2.53;;
4971;SDS011;2501;51.214;6.768;2022-12-29T10:13:50;6.90;;;1.73;;
4971;SDS011;2501;51.214;6.768;2022-12-29T10:16:39;8.10;;;2.37;;
4971;SDS011;2501;51.214;6.768;2022-12-29T10:22:28;7.80;;;1.80;;
4971;SDS011;2501;51.214;6.768;2022-12-29T10:25:11;7.63;;;1.92;;
4971;SDS011;2501;51.214;6.768;2022-12-29T10:27:43;3.83;;;1.52;;
4971;SDS011;2501;51.214;6.768;2022-12-29T10:30:15;6.47;;;1.50;;
4971;SDS011;2501;51.214;6.768;2022-12-29T10:32:45;5.47;;;1.95;;
4971;SDS011;2501;51.214;6.768;2022-12-29T10:35:20;10.02;;;1.90;;
4971;SDS011;2501;51.214;6.768;2022-12-29T10:37:56;10.32;;;1.90;;
4971;SDS011;2501;51.214;6.768;2022-12-29T10:40:29;4.20;;;1.75;;
4971;SDS011;2501;51.214;6.768;2022-12-29T10:43:05;8.98;;;1.90;;
4971;SDS011;2501;51.214;6.768;2022-12-29T10:45:46;10.00;;;1.77;;
4971;SDS011;2501;51.214;6.768;2022-12-29T10:48:17;9.10;;;1.77;;
4971;SDS011;2501;51.214;6.768;2022-12-29T10:50:49;11.57;;;2.08;;
4971;SDS011;2501;51.214;6.768;2022-12-29T10:53:22;8.88;;;1.70;;
4971;SDS011;2501;51.214;6.768;2022-12-29T10:55:53;4.80;;;1.65;;
4971;SDS011;2501;51.214;6.768;2022-12-29T10:58:23;13.00;;;2.30;;
4971;SDS011;2501;51.214;6.768;2022-12-29T11:00:53;8.90;;;1.92;;
4971;SDS011;2501;51.214;6.768;2022-12-29T11:06:14;9.63;;;2.30;;
4971;SDS011;2501;51.214;6.768;2022-12-29T11:08:53;12.98;;;2.05;;
4971;SDS011;2501;51.214;6.768;2022-12-29T11:11:25;3.70;;;1.40;;
4971;SDS011;2501;51.214;6.768;2022-12-29T11:13:56;8.43;;;2.08;;
4971;SDS011;2501;51.214;6.768;2022-12-29T11:16:30;12.98;;;1.95;;
4971;SDS011;2501;51.214;6.768;2022-12-29T11:18:59;7.35;;;1.92;;
4971;SDS011;2501;51.214;6.768;2022-12-29T11:21:32;5.10;;;2.00;;
4971;SDS011;2501;51.214;6.768;2022-12-29T11:24:18;7.57;;;1.63;;
4971;SDS011;2501;51.214;6.768;2022-12-29T11:26:48;11.18;;;2.40;;
4971;SDS011;2501;51.214;6.768;2022-12-29T11:29:26;9.43;;;1.80;;
4971;SDS011;2501;51.214;6.768;2022-12-29T11:31:56;6.60;;;1.48;;
4971;SDS011;2501;51.214;6.768;2022-12-29T11:34:30;9.75;;;1.60;;
4971;SDS011;2501;51.214;6.768;2022-12-29T11:37:00;6.88;;;1.70;;
4971;SDS011;2501;51.214;6.768;2022-12-29T11:39:40;8.07;;;1.85;;
4971;SDS011;2501;51.214;6.768;2022-12-29T11:42:20;8.15;;;2.50;;
4971;SDS011;2501;51.214;6.768;2022-12-29T11:44:52;7.53;;;2.15;;
4971;SDS011;2501;51.214;6.768;2022-12-29T11:47:25;8.10;;;2.50;;
4971;SDS011;2501;51.214;6.768;2022-12-29T11:49:57;7.07;;;2.30;;
4971;SDS011;2501;51.214;6.768;2022-12-29T11:52:29;7.07;;;1.95;;
4971;SDS011;2501;51.214;6.768;2022-12-29T11:55:03;4.25;;;1.30;;
4971;SDS011;2501;51.214;6.768;2022-12-29T11:57:35;8.50;;;2.13;;
4971;SDS011;2501;51.214;6.768;2022-12-29T12:00:06;8.05;;;1.60;;
4971;SDS011;2501;51.214;6.768;2022-12-29T12:02:46;4.97;;;1.20;;
4971;SDS011;2501;51.214;6.768;2022-12-29T12:05:21;7.50;;;1.50;;
4971;SDS011;2501;51.214;6.768;2022-12-29T12:07:55;8.30;;;1.88;;
4971;SDS011;2501;51.214;6.768;2022-12-29T12:10:31;8.45;;;2.20;;
4971;SDS011;2501;51.214;6.768;2022-12-29T12:13:08;8.65;;;2.00;;
4971;SDS011;2501;51.214;6.768;2022-12-29T12:15:47;5.20;;;1.55;;
4971;SDS011;2501;51.214;6.768;2022-12-29T12:18:24;5.05;;;1.67;;
4971;SDS011;2501;51.214;6.768;2022-12-29T12:21:04;4.38;;;1.80;;
4971;SDS011;2501;51.214;6.768;2022-12-29T12:23:40;6.65;;;1.73;;
4971;SDS011;2501;51.214;6.768;2022-12-29T12:26:19;3.58;;;2.00;;
4971;SDS011;2501;51.214;6.768;2022-12-29T12:28:51;6.60;;;2.10;;
4971;SDS011;2501;51.214;6.768;2022-12-29T12:31:25;5.07;;;1.40;;
4971;SDS011;2501;51.214;6.768;2022-12-29T12:34:10;3.03;;;1.52;;
4971;SDS011;2501;51.214;6.768;2022-12-29T12:36:53;5.18;;;1.70;;
4971;SDS011;2501;51.214;6.768;2022-12-29T12:39:46;2.80;;;1.48;;
4971;SDS011;2501;51.214;6.768;2022-12-29T12:42:30;3.95;;;1.60;;
4971;SDS011;2501;51.214;6.768;2022-12-29T12:45:18;8.10;;;1.93;;
4971;SDS011;2501;51.214;6.768;2022-12-29T12:48:09;8.90;;;2.05;;
4971;SDS011;2501;51.214;6.768;2022-12-29T12:50:52;13.05;;;2.58;;
4971;SDS011;2501;51.214;6.768;2022-12-29T12:53:39;10.03;;;2.00;;
4971;SDS011;2501;51.214;6.768;2022-12-29T12:56:25;5.90;;;1.90;;
4971;SDS011;2501;51.214;6.768;2022-12-29T12:59:10;9.07;;;2.10;;
4971;SDS011;2501;51.214;6.768;2022-12-29T13:01:52;6.80;;;1.80;;
4971;SDS011;2501;51.214;6.768;2022-12-29T13:04:32;5.60;;;2.28;;
4971;SDS011;2501;51.214;6.768;2022-12-29T13:07:13;10.07;;;2.20;;
4971;SDS011;2501;51.214;6.768;2022-12-29T13:10:00;12.77;;;2.90;;
4971;SDS011;2501;51.214;6.768;2022-12-29T13:12:44;6.55;;;1.73;;
4971;SDS011;2501;51.214;6.768;2022-12-29T13:15:28;8.10;;;2.20;;
4971;SDS011;2501;51.214;6.768;2022-12-29T13:18:11;9.30;;;1.90;;
4971;SDS011;2501;51.214;6.768;2022-12-29T13:20:49;7.65;;;2.53;;
4971;SDS011;2501;51.214;6.768;2022-12-29T13:23:26;7.47;;;1.98;;
4971;SDS011;2501;51.214;6.768;2022-12-29T13:26:04;6.55;;;1.60;;
4971;SDS011;2501;51.214;6.768;2022-12-29T13:28:42;6.38;;;1.75;;
4971;SDS011;2501;51.214;6.768;2022-12-29T13:31:23;6.80;;;1.63;;
4971;SDS011;2501;51.214;6.768;2022-12-29T13:34:00;6.30;;;2.00;;
4971;SDS011;2501;51.214;6.768;2022-12-29T13:36:37;10.50;;;1.70;;
4971;SDS011;2501;51.214;6.768;2022-12-29T13:39:10;7.43;;;2.30;;
4971;SDS011;2501;51.214;6.768;2022-12-29T13:41:45;8.18;;;1.88;;
4971;SDS011;2501;51.214;6.768;2022-12-29T13:44:18;8.05;;;1.83;;
4971;SDS011;2501;51.214;6.768;2022-12-29T13:46:54;5.57;;;1.60;;
4971;SDS011;2501;51.214;6.768;2022-12-29T13:49:26;7.07;;;1.83;;
4971;SDS011;2501;51.214;6.768;2022-12-29T13:51:57;8.30;;;1.95;;
4971;SDS011;2501;51.214;6.768;2022-12-29T13:54:33;6.50;;;1.40;;
4971;SDS011;2501;51.214;6.768;2022-12-29T13:57:09;10.70;;;3.38;;
4971;SDS011;2501;51.214;6.768;2022-12-29T13:59:45;11.07;;;1.63;;
4971;SDS011;2501;51.214;6.768;2022-12-29T14:02:29;6.67;;;1.80;;
4971;SDS011;2501;51.214;6.768;2022-12-29T14:05:04;12.00;;;2.60;;
4971;SDS011;2501;51.214;6.768;2022-12-29T14:07:57;4.93;;;1.90;;
4971;SDS011;2501;51.214;6.768;2022-12-29T14:10:27;6.57;;;1.70;;
4971;SDS011;2501;51.214;6.768;2022-12-29T14:13:04;11.30;;;2.00;;
4971;SDS011;2501;51.214;6.768;2022-12-29T14:15:40;7.68;;;1.77;;
4971;SDS011;2501;51.214;6.768;2022-12-29T14:18:14;6.97;;;1.52;;
4971;SDS011;2501;51.214;6.768;2022-12-29T14:20:53;4.35;;;1.40;;
4971;SDS011;2501;51.214;6.768;2022-12-29T14:23:28;5.50;;;1.55;;
4971;SDS011;2501;51.214;6.768;2022-12-29T14:26:14;6.63;;;1.50;;
4971;SDS011;2501;51.214;6.768;2022-12-29T14:38:12;4.72;;;1.70;;
4971;SDS011;2501;51.214;6.768;2022-12-29T14:40:47;3.72;;;1.75;;
4971;SDS011;2501;51.214;6.768;2022-12-29T14:43:20;5.68;;;1.85;;
4971;SDS011;2501;51.214;6.768;2022-12-29T14:45:54;16.90;;;3.40;;
4971;SDS011;2501;51.214;6.768;2022-12-29T14:51:18;16.02;;;2.20;;
4971;SDS011;2501;51.214;6.768;2022-12-29T14:53:51;8.55;;;2.53;;
4971;SDS011;2501;51.214;6.768;2022-12-29T14:56:20;7.20;;;1.70;;
4971;SDS011;2501;51.214;6.768;2022-12-29T14:58:54;5.80;;;1.50;;
4971;SDS011;2501;51.214;6.768;2022-12-29T15:01:26;7.10;;;1.90;;
4971;SDS011;2501;51.214;6.768;2022-12-29T15:04:04;8.57;;;2.50;;
4971;SDS011;2501;51.214;6.768;2022-12-29T15:06:41;9.18;;;2.30;;
4971;SDS011;2501;51.214;6.768;2022-12-29T15:09:17;5.47;;;1.80;;
4971;SDS011;2501;51.214;6.768;2022-12-29T15:11:56;7.80;;;1.85;;
4971;SDS011;2501;51.214;6.768;2022-12-29T15:14:30;5.55;;;2.00;;
4971;SDS011;2501;51.214;6.768;2022-12-29T15:17:01;11.38;;;2.65;;
4971;SDS011;2501;51.214;6.768;2022-12-29T15:19:37;8.38;;;2.30;;
4971;SDS011;2501;51.214;6.768;2022-12-29T15:22:05;5.97;;;2.58;;
4971;SDS011;2501;51.214;6.768;2022-12-29T15:24:43;12.30;;;2.97;;
4971;SDS011;2501;51.214;6.768;2022-12-29T15:27:12;6.53;;;2.90;;
4971;SDS011;2501;51.214;6.768;2022-12-29T15:29:44;8.98;;;2.03;;
4971;SDS011;2501;51.214;6.768;2022-12-29T15:32:18;5.23;;;1.87;;
4971;SDS011;2501;51.214;6.768;2022-12-29T15:34:48;9.55;;;2.28;;
4971;SDS011;2501;51.214;6.768;2022-12-29T15:37:19;5.13;;;1.70;;
4971;SDS011;2501;51.214;6.768;2022-12-29T15:39:51;6.60;;;1.90;;
4971;SDS011;2501;51.214;6.768;2022-12-29T15:42:30;3.55;;;1.77;;
4971;SDS011;2501;51.214;6.768;2022-12-29T15:45:13;5.40;;;1.88;;
4971;SDS011;2501;51.214;6.768;2022-12-29T15:47:43;5.68;;;2.25;;
4971;SDS011;2501;51.214;6.768;2022-12-29T15:50:17;6.50;;;1.83;;
4971;SDS011;2501;51.214;6.768;2022-12-29T15:52:50;7.35;;;2.17;;
4971;SDS011;2501;51.214;6.768;2022-12-29T15:55:24;6.78;;;2.20;;
4971;SDS011;2501;51.214;6.768;2022-12-29T15:57:57;5.85;;;1.80;;
4971;SDS011;2501;51.214;6.768;2022-12-29T16:00:28;9.07;;;2.13;;
4971;SDS011;2501;51.214;6.768;2022-12-29T16:02:58;7.20;;;2.63;;
4971;SDS011;2501;51.214;6.768;2022-12-29T16:05:32;11.30;;;2.50;;
4971;SDS011;2501;51.214;6.768;2022-12-29T16:08:02;6.07;;;2.80;;
4971;SDS011;2501;51.214;6.768;2022-12-29T16:10:35;6.53;;;1.80;;
4971;SDS011;2501;51.214;6.768;2022-12-29T16:13:10;5.30;;;1.80;;
4971;SDS011;2501;51.214;6.768;2022-12-29T16:15:46;9.70;;;2.13;;
4971;SDS011;2501;51.214;6.768;2022-12-29T16:18:19;7.88;;;2.10;;